Time;durP1;ratioP1;P1;durP2;ratioP2;P2;SDS_P1;SDS_P2;PMS_P1;PMS_P2;Temp;Humidity;BMP_temperature;BMP_pressure;BME280_temperature;BME280_humidity;BME280_pressure;Samples;Min_cycle;Max_cycle;Signal;HPM_P1;HPM_P2
2022/02/23 00:01:08;;;;;;;1.60;1.30;;;6.80;98.20;;;;;;4994832;28;20481;-71
2022/02/23 00:03:35;;;;;;;1.60;1.23;;;6.70;98.20;;;;;;5001017;28;20490;-71
2022/02/23 00:06:04;;;;;;;1.60;1.23;;;6.70;98.20;;;;;;5004295;28;20464;-70
2022/02/23 00:08:30;;;;;;;1.60;1.20;;;6.80;98.20;;;;;;5004871;28;20492;-70
2022/02/23 00:10:57;;;;;;;1.60;1.20;;;6.80;98.20;;;;;;5005110;28;20475;-71
2022/02/23 00:13:24;;;;;;;1.60;1.30;;;6.70;98.20;;;;;;5005886;28;20515;-71
2022/02/23 00:15:52;;;;;;;1.60;1.30;;;6.70;98.20;;;;;;5004488;28;20967;-70
2022/02/23 00:18:18;;;;;;;1.67;1.33;;;6.70;98.20;;;;;;5009939;28;20468;-71
2022/02/23 00:20:45;;;;;;;1.60;1.30;;;6.70;98.20;;;;;;5010558;28;20464;-71
2022/02/23 00:23:14;;;;;;;1.60;1.20;;;6.70;98.20;;;;;;5004369;28;20494;-70
2022/02/23 00:25:41;;;;;;;1.60;1.30;;;6.70;98.20;;;;;;5004227;28;20535;-70
2022/02/23 00:28:08;;;;;;;1.60;1.30;;;6.60;98.20;;;;;;5004560;28;20878;-71
2022/02/23 00:30:35;;;;;;;1.70;1.40;;;6.60;98.20;;;;;;5002472;28;20864;-70
2022/02/23 00:33:02;;;;;;;1.60;1.20;;;6.60;98.20;;;;;;5006854;28;21094;-71
2022/02/23 00:35:29;;;;;;;1.63;1.37;;;6.50;98.20;;;;;;5006961;28;20547;-71
2022/02/23 00:37:55;;;;;;;1.60;1.30;;;6.50;98.20;;;;;;5004097;28;20909;-71
2022/02/23 00:40:24;;;;;;;1.60;1.30;;;6.40;98.20;;;;;;5003255;28;20506;-71
2022/02/23 00:42:52;;;;;;;1.60;1.30;;;6.40;98.20;;;;;;5000933;28;20464;-71
2022/02/23 00:45:19;;;;;;;1.67;1.33;;;6.40;98.20;;;;;;5003021;28;20488;-71
2022/02/23 00:47:47;;;;;;;1.60;1.37;;;6.40;98.20;;;;;;5003407;28;20475;-71
2022/02/23 00:50:14;;;;;;;1.60;1.20;;;6.30;98.20;;;;;;5002272;28;20488;-72
2022/02/23 00:52:41;;;;;;;1.60;1.20;;;6.30;98.20;;;;;;5000691;28;20480;-72
2022/02/23 00:55:08;;;;;;;1.60;1.27;;;6.30;98.20;;;;;;5006639;28;20487;-72
2022/02/23 00:57:36;;;;;;;1.60;1.30;;;6.30;98.20;;;;;;4984510;28;20492;-72
2022/02/23 01:00:04;;;;;;;1.60;1.30;;;6.30;98.20;;;;;;5005969;28;20485;-72
2022/02/23 01:02:31;;;;;;;1.60;1.30;;;6.30;98.20;;;;;;5005401;28;20596;-72
2022/02/23 01:04:58;;;;;;;1.60;1.40;;;6.30;98.20;;;;;;5008563;28;20947;-72
2022/02/23 01:07:24;;;;;;;1.60;1.30;;;6.20;98.20;;;;;;5008529;28;20475;-72
2022/02/23 01:09:51;;;;;;;1.60;1.30;;;6.20;98.20;;;;;;5007550;28;20488;-72
2022/02/23 01:12:18;;;;;;;1.67;1.40;;;6.20;98.20;;;;;;4997833;28;20771;-72
2022/02/23 01:14:46;;;;;;;1.70;1.50;;;6.20;98.20;;;;;;5006694;28;20489;-72
2022/02/23 01:17:13;;;;;;;1.60;1.30;;;6.20;98.20;;;;;;5007939;28;20464;-72
2022/02/23 01:19:40;;;;;;;1.60;1.30;;;6.10;98.20;;;;;;5007345;28;20484;-72
2022/02/23 01:22:07;;;;;;;1.60;1.30;;;6.10;98.20;;;;;;5007407;28;20460;-72
2022/02/23 01:24:34;;;;;;;1.63;1.30;;;6.10;98.20;;;;;;5002767;28;20971;-72
2022/02/23 01:27:01;;;;;;;1.60;1.30;;;6.00;98.20;;;;;;5008433;28;20468;-72
2022/02/23 01:29:28;;;;;;;1.70;1.50;;;5.90;98.20;;;;;;5003491;28;21117;-72
2022/02/23 01:31:56;;;;;;;1.60;1.30;;;5.90;98.20;;;;;;5007722;28;20475;-72
2022/02/23 01:34:23;;;;;;;1.67;1.30;;;5.90;98.20;;;;;;5006945;28;20533;-72
2022/02/23 01:36:50;;;;;;;1.60;1.30;;;5.80;98.20;;;;;;5008901;28;20457;-72
2022/02/23 01:39:16;;;;;;;1.60;1.30;;;5.80;98.20;;;;;;5004378;28;20876;-73
2022/02/23 01:41:44;;;;;;;1.70;1.40;;;5.80;98.20;;;;;;5004056;28;20467;-72
2022/02/23 01:44:10;;;;;;;1.60;1.40;;;5.70;98.20;;;;;;5004913;28;20534;-72
2022/02/23 01:46:37;;;;;;;1.60;1.30;;;5.70;98.20;;;;;;5008100;28;20956;-72
2022/02/23 01:49:05;;;;;;;1.70;1.53;;;5.70;98.20;;;;;;5006580;28;20521;-72
2022/02/23 01:51:32;;;;;;;1.63;1.30;;;5.60;98.20;;;;;;5005987;28;20487;-72
2022/02/23 01:53:59;;;;;;;1.63;1.30;;;5.60;98.20;;;;;;5008075;28;20490;-72
2022/02/23 01:56:26;;;;;;;1.63;1.30;;;5.60;98.20;;;;;;5007489;28;20465;-72
2022/02/23 01:58:52;;;;;;;1.60;1.30;;;5.50;98.20;;;;;;5003387;28;20492;-72
2022/02/23 02:01:19;;;;;;;1.70;1.50;;;5.50;98.20;;;;;;5005178;28;20463;-72
2022/02/23 02:03:47;;;;;;;1.60;1.30;;;5.50;98.20;;;;;;5005072;28;20820;-72
2022/02/23 02:06:15;;;;;;;1.67;1.40;;;5.50;98.20;;;;;;5007590;28;20890;-72
2022/02/23 02:08:41;;;;;;;1.67;1.40;;;5.40;98.20;;;;;;5006275;28;20491;-72
2022/02/23 02:11:08;;;;;;;1.60;1.30;;;5.40;98.20;;;;;;5006443;28;20472;-72
2022/02/23 02:13:35;;;;;;;1.60;1.30;;;5.40;98.20;;;;;;5006729;28;20468;-72
2022/02/23 02:16:02;;;;;;;1.67;1.30;;;5.30;98.20;;;;;;5007137;28;20642;-72
2022/02/23 02:18:28;;;;;;;1.63;1.30;;;5.30;98.20;;;;;;5007714;28;20559;-72
2022/02/23 02:20:55;;;;;;;1.67;1.30;;;5.20;98.20;;;;;;5005025;28;20467;-72
2022/02/23 02:23:23;;;;;;;1.60;1.30;;;5.20;98.20;;;;;;5006675;28;20952;-72
2022/02/23 02:25:50;;;;;;;1.60;1.30;;;5.20;98.20;;;;;;5003133;28;20460;-72
2022/02/23 02:28:17;;;;;;;1.67;1.43;;;5.20;98.20;;;;;;5005455;28;20463;-72
2022/02/23 02:30:44;;;;;;;1.60;1.30;;;5.10;98.20;;;;;;5007031;28;20472;-72
2022/02/23 02:33:11;;;;;;;1.60;1.30;;;5.10;98.20;;;;;;4994956;28;20484;-72
2022/02/23 02:35:38;;;;;;;1.70;1.40;;;5.10;98.20;;;;;;5007178;28;20499;-72
2022/02/23 02:38:06;;;;;;;1.70;1.40;;;5.10;98.20;;;;;;5007361;28;20464;-72
2022/02/23 02:40:35;;;;;;;1.70;1.50;;;5.00;98.20;;;;;;5004532;28;20506;-72
2022/02/23 02:43:04;;;;;;;1.70;1.50;;;5.00;98.20;;;;;;5005568;28;20460;-72
2022/02/23 02:45:32;;;;;;;1.60;1.30;;;5.00;98.20;;;;;;5007045;28;20463;-72
2022/02/23 02:47:58;;;;;;;1.63;1.40;;;5.00;98.20;;;;;;5006739;28;20495;-72
2022/02/23 02:50:25;;;;;;;1.63;1.47;;;4.90;98.20;;;;;;4991490;28;20487;-72
2022/02/23 02:52:52;;;;;;;1.67;1.40;;;4.90;98.20;;;;;;5005184;28;21015;-72
2022/02/23 02:55:20;;;;;;;1.60;1.40;;;4.90;98.20;;;;;;5005765;28;20846;-72
2022/02/23 02:57:48;;;;;;;1.67;1.47;;;4.90;98.20;;;;;;5006690;28;21015;-72
2022/02/23 03:00:16;;;;;;;1.67;1.30;;;4.90;98.20;;;;;;5003300;28;20562;-72
2022/02/23 03:02:42;;;;;;;1.63;1.30;;;4.90;98.20;;;;;;5004887;28;20470;-72
2022/02/23 03:05:10;;;;;;;1.60;1.40;;;4.90;98.20;;;;;;5000463;28;20543;-72
2022/02/23 03:07:37;;;;;;;1.63;1.37;;;4.90;98.20;;;;;;5006115;28;20467;-72
2022/02/23 03:10:05;;;;;;;1.70;1.40;;;4.90;98.20;;;;;;5005560;28;20854;-72
2022/02/23 03:12:31;;;;;;;1.60;1.40;;;4.80;98.20;;;;;;4998964;28;20491;-72
2022/02/23 03:15:00;;;;;;;1.60;1.30;;;4.80;98.20;;;;;;5010715;28;21054;-72
2022/02/23 03:17:26;;;;;;;1.70;1.60;;;4.80;98.20;;;;;;5007567;28;20553;-72
2022/02/23 03:19:53;;;;;;;1.70;1.60;;;4.80;98.20;;;;;;5009754;28;20483;-72
2022/02/23 03:22:20;;;;;;;1.70;1.50;;;4.70;98.20;;;;;;4998072;28;20853;-72
2022/02/23 03:24:46;;;;;;;1.63;1.40;;;4.70;98.20;;;;;;5005725;28;20472;-72
2022/02/23 03:27:13;;;;;;;1.70;1.53;;;4.70;98.20;;;;;;5009049;28;20475;-72
2022/02/23 03:29:40;;;;;;;1.70;1.60;;;4.70;98.20;;;;;;5009932;28;20493;-72
2022/02/23 03:32:09;;;;;;;1.70;1.50;;;4.70;98.20;;;;;;5010010;28;20869;-71
2022/02/23 03:34:35;;;;;;;1.60;1.40;;;4.70;98.20;;;;;;5008383;28;20479;-72
2022/02/23 03:37:02;;;;;;;1.60;1.30;;;4.70;98.20;;;;;;4999103;28;21000;-72
2022/02/23 03:39:29;;;;;;;1.70;1.60;;;4.70;98.20;;;;;;5009106;28;20877;-72
2022/02/23 03:41:56;;;;;;;1.63;1.40;;;4.70;98.20;;;;;;4998063;28;20488;-71
2022/02/23 03:44:22;;;;;;;1.60;1.40;;;4.70;98.20;;;;;;5005481;28;20476;-72
2022/02/23 03:46:49;;;;;;;1.60;1.40;;;4.60;98.20;;;;;;5009567;28;20474;-72
2022/02/23 03:49:18;;;;;;;1.70;1.40;;;4.60;98.20;;;;;;5008022;28;20526;-72
2022/02/23 03:51:44;;;;;;;1.60;1.40;;;4.60;98.20;;;;;;5008349;28;20491;-71
2022/02/23 03:54:11;;;;;;;1.67;1.40;;;4.60;98.20;;;;;;5009865;28;20939;-72
2022/02/23 03:56:42;;;;;;;1.60;1.30;;;4.60;98.20;;;;;;5007180;28;20491;-71
2022/02/23 03:59:10;;;;;;;1.63;1.40;;;4.50;98.20;;;;;;5006298;28;20493;-72
2022/02/23 04:01:38;;;;;;;1.63;1.37;;;4.50;98.20;;;;;;5005115;28;20464;-71
2022/02/23 04:04:07;;;;;;;1.70;1.40;;;4.50;98.20;;;;;;5010172;28;20472;-72
2022/02/23 04:06:35;;;;;;;1.73;1.63;;;4.50;98.20;;;;;;4995353;28;20511;-72
2022/02/23 04:09:04;;;;;;;1.60;1.37;;;4.40;98.20;;;;;;5003036;28;20523;-72
2022/02/23 04:11:31;;;;;;;1.67;1.37;;;4.40;98.20;;;;;;4993791;28;20504;-72
2022/02/23 04:13:58;;;;;;;1.67;1.40;;;4.40;98.20;;;;;;5008729;28;20479;-72
2022/02/23 04:16:25;;;;;;;1.70;1.40;;;4.40;98.20;;;;;;5006796;28;20480;-71
2022/02/23 04:18:52;;;;;;;1.70;1.40;;;4.40;98.20;;;;;;5005099;28;20483;-72
2022/02/23 04:21:19;;;;;;;1.67;1.40;;;4.30;98.20;;;;;;5007694;28;21470;-72
2022/02/23 04:23:47;;;;;;;1.70;1.50;;;4.30;98.20;;;;;;5003999;28;21149;-72
2022/02/23 04:26:16;;;;;;;1.60;1.30;;;4.30;98.20;;;;;;4993834;28;20484;-72
2022/02/23 04:28:43;;;;;;;1.63;1.40;;;4.40;98.20;;;;;;5003550;28;20869;-71
2022/02/23 04:31:10;;;;;;;1.63;1.30;;;4.30;98.20;;;;;;4993671;28;20491;-71
2022/02/23 04:36:12;;;;;;;1.63;1.33;;;4.30;98.20;;;;;;5006770;28;20595;-73
2022/02/23 04:38:39;;;;;;;1.70;1.50;;;4.30;98.20;;;;;;5011655;28;20957;-74
2022/02/23 04:41:08;;;;;;;1.67;1.40;;;4.30;98.20;;;;;;5009975;28;20487;-73
2022/02/23 04:43:36;;;;;;;1.70;1.40;;;4.30;98.20;;;;;;5010645;28;20475;-74
2022/02/23 04:46:04;;;;;;;1.67;1.37;;;4.30;98.20;;;;;;4979756;28;20465;-74
2022/02/23 04:48:31;;;;;;;1.67;1.40;;;4.30;98.20;;;;;;5001971;28;20967;-74
2022/02/23 04:50:58;;;;;;;1.70;1.40;;;4.30;98.20;;;;;;4975519;28;20827;-74
2022/02/23 04:53:25;;;;;;;1.70;1.40;;;4.30;98.20;;;;;;4993712;28;20472;-75
2022/02/23 04:55:52;;;;;;;1.60;1.40;;;4.30;98.20;;;;;;4997235;28;20496;-76
2022/02/23 04:58:20;;;;;;;1.70;1.40;;;4.30;98.20;;;;;;4988919;28;20476;-74
2022/02/23 05:00:47;;;;;;;1.63;1.40;;;4.30;98.20;;;;;;4989245;28;20473;-73
2022/02/23 05:03:14;;;;;;;1.63;1.40;;;4.30;98.20;;;;;;4987311;28;20516;-74
2022/02/23 05:05:41;;;;;;;1.67;1.40;;;4.30;98.20;;;;;;4989154;28;20481;-72
2022/02/23 05:08:07;;;;;;;1.63;1.40;;;4.30;98.20;;;;;;4987951;28;20469;-73
2022/02/23 05:10:34;;;;;;;1.63;1.40;;;4.30;98.20;;;;;;4989123;28;20465;-75
2022/02/23 05:13:01;;;;;;;1.70;1.40;;;4.30;98.20;;;;;;4989384;28;20461;-76
2022/02/23 05:15:29;;;;;;;1.60;1.40;;;4.30;98.20;;;;;;4988833;28;20484;-74
2022/02/23 05:17:56;;;;;;;1.67;1.40;;;4.20;98.20;;;;;;4993145;28;20826;-74
2022/02/23 05:20:23;;;;;;;1.70;1.50;;;4.20;98.20;;;;;;4987170;28;20480;-74
2022/02/23 05:22:49;;;;;;;1.60;1.40;;;4.20;98.20;;;;;;4990892;28;20845;-72
2022/02/23 05:25:17;;;;;;;1.60;1.30;;;4.20;98.20;;;;;;4988903;28;20508;-74
2022/02/23 05:27:44;;;;;;;1.60;1.40;;;4.10;98.20;;;;;;4986107;28;20464;-71
2022/02/23 05:30:12;;;;;;;1.60;1.30;;;4.10;98.20;;;;;;4989345;28;20473;-75
2022/02/23 05:32:42;;;;;;;1.70;1.50;;;4.10;98.20;;;;;;4983752;28;20565;-73
2022/02/23 05:35:09;;;;;;;1.80;1.70;;;4.00;98.20;;;;;;4998620;28;20488;-73
2022/02/23 05:37:36;;;;;;;1.70;1.50;;;4.00;98.20;;;;;;5007305;28;20464;-73
2022/02/23 05:40:04;;;;;;;1.70;1.40;;;3.90;98.20;;;;;;5012781;28;20583;-74
2022/02/23 05:42:31;;;;;;;1.60;1.40;;;3.90;98.20;;;;;;5007428;28;20464;-75
2022/02/23 05:44:58;;;;;;;1.70;1.47;;;3.90;98.20;;;;;;5007562;28;20480;-75
2022/02/23 05:47:25;;;;;;;1.70;1.60;;;3.80;98.20;;;;;;4995842;28;20476;-72
2022/02/23 05:49:53;;;;;;;1.70;1.50;;;3.80;98.20;;;;;;5006288;28;20938;-72
2022/02/23 05:52:20;;;;;;;1.63;1.40;;;3.80;98.20;;;;;;5014414;28;20460;-73
2022/02/23 05:54:48;;;;;;;1.70;1.50;;;3.80;98.20;;;;;;5011374;28;20483;-74
2022/02/23 05:57:15;;;;;;;1.70;1.57;;;3.80;98.20;;;;;;5014276;28;20468;-72
2022/02/23 05:59:42;;;;;;;1.70;1.47;;;3.70;98.20;;;;;;5008498;28;20456;-74
2022/02/23 06:02:09;;;;;;;1.70;1.50;;;3.70;98.20;;;;;;5007265;28;20559;-73
2022/02/23 06:04:36;;;;;;;1.63;1.40;;;3.70;98.20;;;;;;5007673;28;20857;-75
2022/02/23 06:07:05;;;;;;;1.60;1.40;;;3.70;98.20;;;;;;5007048;28;20460;-72
2022/02/23 06:09:32;;;;;;;1.70;1.60;;;3.60;98.20;;;;;;5006979;28;20456;-72
2022/02/23 06:11:59;;;;;;;1.60;1.40;;;3.60;98.20;;;;;;5003107;28;20460;-73
2022/02/23 06:14:25;;;;;;;1.70;1.50;;;3.60;98.20;;;;;;5007144;28;20484;-71
2022/02/23 06:16:52;;;;;;;1.60;1.40;;;3.60;98.20;;;;;;5010313;28;20882;-75
2022/02/23 06:19:19;;;;;;;1.70;1.60;;;3.60;98.20;;;;;;5004126;28;20495;-75
2022/02/23 06:21:46;;;;;;;1.63;1.40;;;3.50;98.20;;;;;;5008765;28;20514;-74
2022/02/23 06:24:14;;;;;;;1.63;1.40;;;3.50;98.20;;;;;;5007145;28;20484;-74
2022/02/23 06:26:41;;;;;;;1.70;1.60;;;3.50;98.20;;;;;;5006441;28;20466;-74
2022/02/23 06:29:08;;;;;;;1.70;1.50;;;3.50;98.20;;;;;;5006012;28;20468;-72
2022/02/23 06:31:35;;;;;;;1.60;1.40;;;3.40;98.20;;;;;;5004487;28;20487;-73
2022/02/23 06:34:02;;;;;;;1.67;1.40;;;3.40;98.20;;;;;;5005912;28;20484;-74
2022/02/23 06:36:29;;;;;;;1.70;1.60;;;3.40;98.20;;;;;;5006354;28;20848;-72
2022/02/23 06:38:56;;;;;;;1.63;1.40;;;3.40;98.20;;;;;;5005983;28;20467;-73
2022/02/23 06:41:26;;;;;;;1.70;1.50;;;3.40;98.20;;;;;;4993114;28;20480;-74
2022/02/23 06:43:54;;;;;;;1.70;1.47;;;3.30;98.20;;;;;;5006104;28;20475;-75
2022/02/23 06:46:22;;;;;;;1.70;1.50;;;3.30;98.20;;;;;;4998087;28;20481;-74
2022/02/23 06:48:49;;;;;;;1.70;1.53;;;3.30;98.20;;;;;;5009142;28;20755;-73
2022/02/23 06:51:19;;;;;;;1.70;1.50;;;3.30;98.20;;;;;;5022392;28;20531;-74
2022/02/23 06:53:46;;;;;;;2.00;1.80;;;3.30;98.20;;;;;;5010425;28;20953;-75
2022/02/23 06:56:13;;;;;;;1.70;1.50;;;3.30;98.20;;;;;;5009003;28;20491;-73
2022/02/23 06:58:46;;;;;;;1.80;1.70;;;3.30;98.20;;;;;;5011521;28;20960;-75
2022/02/23 07:01:16;;;;;;;1.67;1.43;;;3.30;98.20;;;;;;5009748;28;20492;-74
2022/02/23 07:03:43;;;;;;;1.70;1.50;;;3.40;98.20;;;;;;5010778;28;20486;-76
2022/02/23 07:06:10;;;;;;;1.70;1.50;;;3.40;98.20;;;;;;5011799;28;20476;-74
2022/02/23 07:08:37;;;;;;;1.70;1.50;;;3.50;98.20;;;;;;5010566;28;20872;-73
2022/02/23 07:11:04;;;;;;;1.70;1.40;;;3.60;98.20;;;;;;5009767;28;20460;-72
2022/02/23 07:13:31;;;;;;;1.67;1.40;;;3.70;98.20;;;;;;5010248;28;20466;-73
2022/02/23 07:15:59;;;;;;;1.70;1.40;;;3.80;98.20;;;;;;5010278;28;20491;-73
2022/02/23 07:18:25;;;;;;;1.63;1.40;;;3.90;98.20;;;;;;5009310;28;20460;-72
2022/02/23 07:20:52;;;;;;;1.63;1.50;;;4.00;98.20;;;;;;5015750;28;20506;-73
2022/02/23 07:23:19;;;;;;;1.70;1.50;;;4.20;98.20;;;;;;5011677;28;20463;-72
2022/02/23 07:25:46;;;;;;;1.63;1.40;;;4.30;98.20;;;;;;5010205;28;20476;-73
2022/02/23 07:28:13;;;;;;;1.70;1.50;;;4.50;98.20;;;;;;5010104;28;20464;-73
2022/02/23 07:30:40;;;;;;;1.70;1.40;;;4.70;98.20;;;;;;5010763;28;20997;-74
2022/02/23 07:33:09;;;;;;;1.60;1.30;;;4.80;98.20;;;;;;5010555;28;20468;-73
2022/02/23 07:35:36;;;;;;;1.70;1.50;;;5.00;98.20;;;;;;5010043;28;20492;-74
2022/02/23 07:38:05;;;;;;;1.70;1.50;;;5.10;98.20;;;;;;5010291;28;20468;-74
2022/02/23 07:40:33;;;;;;;1.60;1.37;;;5.30;98.20;;;;;;5010456;28;20558;-76
2022/02/23 07:43:00;;;;;;;1.67;1.43;;;5.40;98.20;;;;;;4999582;28;20484;-75
2022/02/23 07:45:27;;;;;;;1.70;1.40;;;5.50;98.20;;;;;;5010486;28;20502;-75
2022/02/23 07:47:53;;;;;;;1.67;1.43;;;5.70;98.20;;;;;;4999468;28;20480;-74
2022/02/23 07:50:22;;;;;;;1.67;1.30;;;5.80;98.20;;;;;;5019444;28;20474;-74
2022/02/23 07:52:50;;;;;;;1.60;1.30;;;6.00;98.20;;;;;;4983861;28;20877;-74
2022/02/23 07:55:17;;;;;;;1.60;1.30;;;6.20;98.20;;;;;;5009610;28;20579;-71
2022/02/23 07:57:44;;;;;;;1.63;1.30;;;6.30;98.20;;;;;;4997098;28;20488;-72
2022/02/23 08:00:12;;;;;;;1.60;1.30;;;6.50;98.20;;;;;;5009809;28;20460;-73
2022/02/23 08:02:39;;;;;;;1.63;1.30;;;6.60;98.20;;;;;;5009574;28;20522;-72
2022/02/23 08:05:07;;;;;;;1.60;1.30;;;6.70;98.20;;;;;;5010057;28;20495;-72
2022/02/23 08:07:35;;;;;;;1.60;1.20;;;6.80;98.20;;;;;;4999478;28;20496;-72
2022/02/23 08:10:03;;;;;;;1.60;1.30;;;7.00;98.20;;;;;;5010156;28;20456;-73
2022/02/23 08:12:30;;;;;;;1.70;1.30;;;7.20;98.20;;;;;;5008988;28;20456;-72
2022/02/23 08:19:30;;;;;;;1.70;1.40;;;7.30;98.20;;;;;;5002113;28;20565;-72
2022/02/23 08:20:28;;;;;;;1.60;1.30;;;7.60;98.20;;;;;;5021727;28;20442;-72
2022/02/23 08:22:56;;;;;;;1.60;1.30;;;7.70;98.20;;;;;;5012808;28;20463;-72
2022/02/23 08:25:23;;;;;;;1.70;1.30;;;7.90;98.20;;;;;;5008785;28;20480;-73
2022/02/23 08:27:49;;;;;;;1.67;1.30;;;8.00;98.20;;;;;;5005053;28;20460;-73
2022/02/23 08:30:16;;;;;;;7.60;3.23;;;8.20;98.20;;;;;;5010019;28;20471;-73
2022/02/23 08:32:44;;;;;;;1.60;1.20;;;8.30;98.20;;;;;;5007473;28;20490;-74
2022/02/23 08:35:11;;;;;;;1.60;1.20;;;8.40;98.20;;;;;;5009309;28;20491;-73
2022/02/23 08:37:37;;;;;;;1.60;1.20;;;8.50;98.20;;;;;;5008618;28;20566;-73
2022/02/23 08:40:08;;;;;;;1.60;1.20;;;8.60;98.20;;;;;;5003621;28;21090;-73
2022/02/23 08:42:35;;;;;;;1.67;1.30;;;8.80;98.20;;;;;;5010880;28;20463;-73
2022/02/23 08:45:02;;;;;;;1.60;1.20;;;8.90;98.20;;;;;;5004783;28;20539;-72
2022/02/23 08:47:29;;;;;;;1.60;1.20;;;9.00;98.20;;;;;;4995289;28;20496;-73
2022/02/23 08:49:56;;;;;;;1.70;1.30;;;9.10;98.20;;;;;;5004475;28;20464;-72
2022/02/23 08:52:23;;;;;;;1.60;1.20;;;9.20;98.20;;;;;;5005421;28;20652;-73
2022/02/23 08:54:50;;;;;;;2.23;2.03;;;9.30;98.20;;;;;;5005545;28;20487;-73
2022/02/23 08:57:18;;;;;;;1.60;1.20;;;9.40;98.20;;;;;;5005492;28;20507;-73
2022/02/23 08:59:45;;;;;;;1.60;1.20;;;9.40;98.20;;;;;;5005509;28;20476;-73
2022/02/23 09:02:12;;;;;;;1.60;1.30;;;9.50;98.20;;;;;;5005094;28;20464;-73
2022/02/23 09:04:38;;;;;;;1.67;1.30;;;9.70;98.20;;;;;;5007185;28;21014;-73
2022/02/23 09:07:05;;;;;;;1.63;1.20;;;9.80;98.20;;;;;;5008907;28;20474;-73
2022/02/23 09:09:32;;;;;;;1.67;1.20;;;9.90;98.20;;;;;;5002239;28;20968;-72
2022/02/23 09:11:59;;;;;;;1.70;1.30;;;10.00;98.20;;;;;;5011990;28;20476;-73
2022/02/23 09:14:27;;;;;;;1.60;1.10;;;10.10;98.20;;;;;;5008891;28;20483;-72
2022/02/23 09:16:53;;;;;;;1.63;1.20;;;10.20;98.20;;;;;;5011005;28;20484;-73
2022/02/23 09:19:20;;;;;;;1.60;1.10;;;10.20;98.20;;;;;;5007730;28;20834;-73
2022/02/23 09:21:47;;;;;;;1.63;1.20;;;10.30;98.20;;;;;;5007570;28;20472;-73
2022/02/23 09:24:14;;;;;;;1.60;1.10;;;10.40;98.20;;;;;;5001705;28;20483;-73
2022/02/23 09:26:41;;;;;;;1.60;1.10;;;10.50;98.20;;;;;;5004041;28;20464;-73
2022/02/23 09:29:08;;;;;;;1.67;1.20;;;10.60;98.20;;;;;;5004338;28;20804;-73
2022/02/23 09:31:38;;;;;;;1.60;1.20;;;10.70;98.20;;;;;;5004975;28;20921;-74
2022/02/23 09:34:05;;;;;;;1.60;1.10;;;10.80;98.20;;;;;;5000453;28;21125;-73
2022/02/23 09:36:32;;;;;;;1.60;1.20;;;11.00;98.20;;;;;;5007926;28;20519;-70
2022/02/23 09:38:59;;;;;;;1.60;1.13;;;11.10;98.20;;;;;;5004797;28;20566;-73
2022/02/23 09:41:26;;;;;;;1.60;1.20;;;11.30;98.20;;;;;;5002860;28;20467;-73
2022/02/23 09:43:54;;;;;;;1.67;1.20;;;11.40;98.20;;;;;;5001837;28;20470;-72
2022/02/23 09:46:22;;;;;;;1.70;1.30;;;11.50;98.20;;;;;;5003383;28;20468;-73
2022/02/23 09:48:52;;;;;;;1.63;1.20;;;11.50;98.20;;;;;;5003397;28;20563;-73
2022/02/23 09:51:19;;;;;;;1.63;1.10;;;11.60;98.20;;;;;;5005908;28;21222;-73
2022/02/23 09:53:46;;;;;;;1.60;1.10;;;11.80;98.20;;;;;;5002274;28;20466;-73
2022/02/23 09:56:14;;;;;;;1.63;1.10;;;11.90;97.90;;;;;;5004020;28;20580;-71
2022/02/23 09:58:42;;;;;;;1.60;1.10;;;12.00;98.20;;;;;;5006535;28;20463;-71
2022/02/23 10:01:09;;;;;;;3.43;3.23;;;12.10;98.20;;;;;;5005029;28;20500;-70
2022/02/23 10:03:38;;;;;;;1.87;1.67;;;12.20;97.70;;;;;;5003270;28;20464;-71
2022/02/23 10:06:06;;;;;;;1.60;1.10;;;12.30;98.20;;;;;;5001638;28;20492;-71
2022/02/23 10:08:37;;;;;;;1.60;1.10;;;12.50;97.90;;;;;;5003100;28;20551;-71
2022/02/23 10:11:06;;;;;;;1.60;1.10;;;12.60;96.60;;;;;;5002306;28;20468;-71
2022/02/23 10:13:33;;;;;;;1.60;1.10;;;12.60;95.60;;;;;;5002107;28;20474;-71
2022/02/23 10:16:00;;;;;;;1.60;1.10;;;12.70;96.30;;;;;;4991628;28;20487;-71
2022/02/23 10:18:31;;;;;;;1.60;1.03;;;12.80;95.20;;;;;;5002170;28;20731;-71
2022/02/23 10:20:58;;;;;;;1.60;1.00;;;12.90;95.30;;;;;;5006699;28;20468;-71
2022/02/23 10:23:28;;;;;;;1.60;1.00;;;13.00;94.50;;;;;;5006451;28;20464;-71
2022/02/23 10:25:58;;;;;;;1.60;1.00;;;13.10;94.40;;;;;;5003051;28;20488;-71
2022/02/23 10:28:27;;;;;;;1.60;1.00;;;13.20;94.20;;;;;;5011456;28;21020;-71
2022/02/23 10:30:56;;;;;;;1.60;1.00;;;13.30;95.60;;;;;;5004827;28;20476;-71
2022/02/23 10:33:24;;;;;;;1.70;1.30;;;13.50;94.20;;;;;;5006670;28;20567;-71
2022/02/23 10:35:56;;;;;;;1.60;1.10;;;13.60;94.00;;;;;;5006477;28;20498;-71
2022/02/23 10:38:28;;;;;;;1.60;1.00;;;13.70;91.70;;;;;;5005379;28;20890;-71
2022/02/23 10:40:56;;;;;;;1.60;1.10;;;13.70;91.40;;;;;;4997150;28;20857;-72
2022/02/23 10:43:27;;;;;;;1.60;1.10;;;13.80;91.20;;;;;;5004376;28;20552;-71
2022/02/23 10:46:02;;;;;;;1.60;1.00;;;13.80;90.70;;;;;;5004660;28;20503;-72
2022/02/23 10:48:34;;;;;;;1.60;1.10;;;13.90;91.60;;;;;;5003994;28;20975;-71
2022/02/23 10:51:02;;;;;;;1.60;1.00;;;13.80;90.00;;;;;;5013006;28;20816;-72
2022/02/23 10:53:33;;;;;;;1.60;1.10;;;13.80;89.80;;;;;;5006361;28;20460;-73
2022/02/23 10:56:00;;;;;;;1.60;1.10;;;13.90;90.00;;;;;;5008816;28;20484;-72
2022/02/23 10:58:29;;;;;;;1.60;1.00;;;14.00;90.30;;;;;;5007540;28;20996;-72
2022/02/23 11:00:57;;;;;;;1.60;1.10;;;14.10;89.30;;;;;;5002982;28;20547;-72
2022/02/23 11:03:24;;;;;;;1.60;1.10;;;14.10;88.90;;;;;;5005415;28;20467;-73
2022/02/23 11:05:52;;;;;;;1.60;1.10;;;14.30;89.40;;;;;;5004668;28;20491;-72
2022/02/23 11:08:21;;;;;;;1.60;1.00;;;14.30;85.20;;;;;;5000639;28;20474;-72
2022/02/23 11:10:50;;;;;;;1.60;1.17;;;14.40;84.90;;;;;;5004084;28;20555;-72
2022/02/23 11:13:19;;;;;;;1.60;1.10;;;14.50;85.20;;;;;;5010815;28;20467;-72
2022/02/23 11:15:49;;;;;;;1.60;1.10;;;14.50;81.30;;;;;;5002255;28;20491;-72
2022/02/23 11:18:17;;;;;;;1.60;1.10;;;14.50;82.70;;;;;;4982830;28;20483;-72
2022/02/23 11:20:45;;;;;;;1.60;1.00;;;14.60;82.90;;;;;;5007671;28;20464;-72
2022/02/23 11:23:17;;;;;;;1.60;0.97;;;14.60;82.10;;;;;;4993441;28;20578;-72
2022/02/23 11:25:48;;;;;;;1.53;1.00;;;14.70;81.40;;;;;;5004966;28;21011;-71
2022/02/23 11:28:24;;;;;;;1.70;1.20;;;14.70;81.70;;;;;;5004488;28;20467;-72
2022/02/23 11:30:54;;;;;;;1.60;1.10;;;14.70;80.90;;;;;;5002940;28;20471;-72
2022/02/23 11:33:57;;;;;;;1.60;1.00;;;14.60;81.30;;;;;;5008348;28;20523;-72
2022/02/23 11:36:28;;;;;;;1.60;1.03;;;14.50;81.70;;;;;;4993551;28;20507;-72
2022/02/23 11:38:55;;;;;;;1.60;1.03;;;14.60;82.20;;;;;;5003167;28;20471;-72
2022/02/23 11:41:26;;;;;;;1.60;1.17;;;14.70;82.60;;;;;;5007151;28;21212;-73
2022/02/23 11:44:14;;;;;;;1.60;1.00;;;14.90;83.80;;;;;;5032644;23;21269;-74
2022/02/23 11:46:59;;;;;;;1.60;1.00;;;15.10;83.20;;;;;;5049143;28;20508;-72
2022/02/23 11:49:27;;;;;;;1.60;1.00;;;15.20;82.60;;;;;;5046030;28;21021;-72
2022/02/23 11:52:13;;;;;;;1.60;1.00;;;15.30;83.60;;;;;;5057957;28;20466;-72
2022/02/23 11:54:58;;;;;;;1.60;1.00;;;15.40;80.90;;;;;;5048741;28;20478;-72
2022/02/23 11:57:52;;;;;;;1.60;1.10;;;15.30;80.30;;;;;;5055708;28;20836;-73
2022/02/23 12:00:56;;;;;;;1.60;1.00;;;15.50;81.00;;;;;;5019571;28;20987;-73
2022/02/23 12:03:26;;;;;;;1.60;1.00;;;15.60;81.40;;;;;;5042560;28;20470;-73
2022/02/23 12:05:58;;;;;;;1.57;1.00;;;15.60;79.40;;;;;;5040732;28;21060;-71
2022/02/23 12:08:47;;;;;;;1.60;1.10;;;15.60;80.00;;;;;;5045892;28;20505;-72
2022/02/23 12:11:42;;;;;;;1.57;1.00;;;15.60;80.00;;;;;;5039012;28;20581;-75
2022/02/23 12:14:09;;;;;;;1.57;1.00;;;15.60;79.70;;;;;;5050479;28;20489;-73
2022/02/23 12:16:48;;;;;;;1.60;1.10;;;15.70;80.00;;;;;;5050600;28;20464;-73
2022/02/23 12:19:16;;;;;;;1.60;1.00;;;15.60;78.40;;;;;;5056236;28;20470;-72
2022/02/23 12:21:45;;;;;;;1.60;1.00;;;15.60;79.60;;;;;;5058967;28;20528;-74
2022/02/23 12:24:15;;;;;;;1.60;1.00;;;15.60;79.40;;;;;;5050366;28;20488;-73
2022/02/23 12:26:43;;;;;;;1.53;1.00;;;15.60;79.70;;;;;;5049728;28;20476;-73
2022/02/23 12:29:11;;;;;;;1.60;1.07;;;15.50;80.20;;;;;;5049363;28;20463;-72
2022/02/23 12:31:40;;;;;;;1.60;1.00;;;15.50;78.90;;;;;;5047682;28;20577;-73
2022/02/23 12:34:10;;;;;;;1.57;1.00;;;15.50;77.30;;;;;;5049394;28;20482;-74
2022/02/23 12:36:40;;;;;;;1.60;1.00;;;15.50;78.90;;;;;;5039579;28;20482;-72
2022/02/23 12:39:10;;;;;;;1.53;1.00;;;15.60;78.40;;;;;;5056477;28;20482;-72
2022/02/23 12:41:37;;;;;;;1.60;1.00;;;15.60;79.50;;;;;;5047375;28;20949;-73
2022/02/23 12:44:07;;;;;;;1.60;0.90;;;15.60;78.70;;;;;;5060461;28;20809;-71
2022/02/23 12:46:36;;;;;;;1.60;1.00;;;15.70;77.90;;;;;;5065751;28;20473;-75
2022/02/23 12:49:04;;;;;;;1.57;0.90;;;15.80;80.20;;;;;;5110327;27;20475;-75
2022/02/23 12:51:33;;;;;;;1.60;1.00;;;15.90;78.90;;;;;;5123875;27;20955;-73
2022/02/23 12:54:03;;;;;;;1.60;0.90;;;16.00;78.70;;;;;;5106064;27;20488;-72
2022/02/23 12:56:39;;;;;;;1.60;1.03;;;16.00;77.60;;;;;;5017200;28;20560;-74
2022/02/23 12:59:09;;;;;;;1.60;0.90;;;15.90;76.60;;;;;;4785872;29;20507;-71
2022/02/23 13:01:37;;;;;;;1.60;1.00;;;15.90;77.40;;;;;;4668438;29;1035781;-75
2022/02/23 13:04:07;;;;;;;1.60;1.00;;;15.90;77.00;;;;;;4592208;30;20752;-74